This is the latest recevied weather packets stored in our database for station/object DH9NFM-11. If no packets are shown the sender has not sent any weather packets the latest 10 day(s).
| Time | Temp. | Humidity | Pressure | Rain* | Wind** | Luminosity | Snow |
|---|---|---|---|---|---|---|---|
| 1777470381 | 15° C | 33% | 1021.5 hPa | 0 mm | - | - | - |
| 1777469795 | 14.44° C | 32% | 1021.4 hPa | 0 mm | - | - | - |
| 1777466807 | 15° C | 31% | 1021.3 hPa | 0 mm | - | - | - |
| 1777465595 | 15.56° C | 31% | 1021.4 hPa | 0 mm | - | - | - |
| 1777462021 | 14.44° C | 32% | 1021.6 hPa | 0 mm | - | - | - |
| 1777460809 | 14.44° C | 31% | 1021.6 hPa | 0 mm | - | - | - |
| 1777458406 | 14.44° C | 31% | 1021.8 hPa | 0 mm | - | - | - |
| 1777456569 | 13.89° C | 31% | 1021.7 hPa | 0 mm | - | - | - |
| 1777454811 | 13.33° C | 32% | 1021.9 hPa | 0 mm | - | - | - |
| 1777453640 | 12.78° C | 31% | 1021.9 hPa | 0 mm | - | - | - |
| 1777447018 | 10.56° C | 35% | 1021.4 hPa | 0 mm | - | - | - |
| 1777445180 | 10° C | 38% | 1021.3 hPa | 0 mm | - | - | - |
| 1777440389 | 5.56° C | 56% | 1021.1 hPa | 0 mm | - | - | - |
| 1777437966 | 4.44° C | 58% | 1020.8 hPa | 0 mm | - | - | - |
| 1777437414 | 4.44° C | 60% | 1020.9 hPa | 0 mm | - | - | - |
| 1777434992 | 3.33° C | 63% | 1020.6 hPa | 0 mm | - | - | - |
| 1777434386 | 3.33° C | 64% | 1020.3 hPa | 0 mm | - | - | - |
| 1777423592 | 6.11° C | 52% | 1019.6 hPa | 0 mm | - | - | - |
| 1777422381 | 6.67° C | 50% | 1019.7 hPa | 0 mm | - | - | - |
| 1777418196 | 7.78° C | 46% | 1019.8 hPa | 0 mm | - | - | - |
| 1777414615 | 8.89° C | 43% | 1019.4 hPa | 0 mm | - | - | - |
| 1777413404 | 8.89° C | 43% | 1019.3 hPa | 0 mm | - | - | - |
| 1777410375 | 10° C | 43% | 1019.1 hPa | 0 mm | - | - | - |
| 1777406795 | 10.56° C | 46% | 1018.7 hPa | 0 mm | - | - | - |
| 1777406189 | 10.56° C | 46% | 1018.5 hPa | 0 mm | - | - | - |
* Rain latest hour (hover to see other rain measurements)
** Current wind speed in m/s (hover to see current wind gust speed)